Terminal Aerodrome Forecast
Issued by NWS Billings, MT

Home | Current Version | Previous Version | Text Only | Print | Product List | Glossary On
Versions: 1 2 3 4 5 6 7 8 9 10 11 12 13 14 15 16 17 18 19 20 21 22 23 24 25 26 27
000
FTUS45 KBYZ 251138
TAFMLS
TAF
KMLS 251138Z 2512/2612 29007KT P6SM VCSH BKN017 OVC045
     FM251800 33006KT P6SM SCT030 BKN050
     FM252000 VRB04KT P6SM SCT050 BKN080
     FM260300 VRB04KT P6SM FEW080=

USA.gov is the U.S. government's official web portal to all federal, state and local government web resources and services.